Time;durP1;ratioP1;P1;durP2;ratioP2;P2;SDS_P1;SDS_P2;PMS_P1;PMS_P2;Temp;Humidity;BMP_temperature;BMP_pressure;BME280_temperature;BME280_humidity;BME280_pressure;Samples;Min_cycle;Max_cycle;Signal;HPM_P1;HPM_P2
2023/09/07 00:00:33;;;;;;;7.60;6.90;;;22.70;74.60;;;;;;5054432;28;20454;-58
2023/09/07 00:03:00;;;;;;;6.47;5.87;;;22.70;74.70;;;;;;5054336;28;20469;-58
2023/09/07 00:05:27;;;;;;;10.30;6.73;;;22.70;74.60;;;;;;5054278;28;20446;-58
2023/09/07 00:07:53;;;;;;;7.23;6.53;;;22.60;74.50;;;;;;5054506;28;20477;-58
2023/09/07 00:10:21;;;;;;;7.07;5.90;;;22.70;74.60;;;;;;5054233;28;20445;-58
2023/09/07 00:12:48;;;;;;;10.53;6.63;;;22.60;74.50;;;;;;5053820;28;20815;-58
2023/09/07 00:15:15;;;;;;;6.33;5.83;;;22.60;74.50;;;;;;5054122;28;20513;-58
2023/09/07 00:17:42;;;;;;;6.60;5.73;;;22.60;74.50;;;;;;5054057;28;20450;-58
2023/09/07 00:20:14;;;;;;;8.47;6.30;;;22.60;74.60;;;;;;5053777;28;20449;-58
2023/09/07 00:22:41;;;;;;;7.50;6.27;;;22.60;74.60;;;;;;5053868;28;20556;-58
2023/09/07 00:25:09;;;;;;;8.90;6.70;;;22.60;74.70;;;;;;5054484;28;20441;-58
2023/09/07 00:27:37;;;;;;;7.07;6.40;;;22.60;74.90;;;;;;5053846;28;20572;-58
2023/09/07 00:30:05;;;;;;;7.20;6.40;;;22.50;74.80;;;;;;5053874;28;20445;-59
2023/09/07 00:32:34;;;;;;;8.23;6.40;;;22.50;75.00;;;;;;5053783;28;20508;-58
2023/09/07 00:35:00;;;;;;;7.97;7.17;;;22.50;75.10;;;;;;5053735;28;20449;-58
2023/09/07 00:37:27;;;;;;;6.93;6.33;;;22.40;75.10;;;;;;5053847;28;20441;-58
2023/09/07 00:39:54;;;;;;;7.33;6.20;;;22.40;75.20;;;;;;5053954;28;20445;-58
2023/09/07 00:42:20;;;;;;;6.80;6.20;;;22.40;75.40;;;;;;5053385;28;21023;-58
2023/09/07 00:44:48;;;;;;;10.17;6.80;;;22.40;75.40;;;;;;5053379;28;20966;-58
2023/09/07 00:47:15;;;;;;;8.83;6.00;;;22.40;75.40;;;;;;5053597;28;20468;-58
2023/09/07 00:49:42;;;;;;;7.63;6.33;;;22.30;75.40;;;;;;5053719;28;20462;-58
2023/09/07 00:52:09;;;;;;;7.03;6.13;;;22.30;75.50;;;;;;5053550;28;20516;-58
2023/09/07 00:54:38;;;;;;;7.27;6.23;;;22.30;75.70;;;;;;5053614;28;20476;-58
2023/09/07 00:57:06;;;;;;;8.90;5.83;;;22.20;75.70;;;;;;5053300;28;20446;-58
2023/09/07 00:59:33;;;;;;;6.00;5.33;;;22.20;75.80;;;;;;5053170;28;20454;-58
2023/09/07 01:02:01;;;;;;;6.57;5.80;;;22.10;75.80;;;;;;5053370;28;20473;-58
2023/09/07 01:04:28;;;;;;;6.70;6.00;;;22.10;75.80;;;;;;5053420;28;20453;-58
2023/09/07 01:07:00;;;;;;;6.70;6.00;;;22.10;75.80;;;;;;5053369;28;20475;-58
2023/09/07 01:09:29;;;;;;;6.67;5.97;;;22.00;75.70;;;;;;5053384;28;20465;-58
2023/09/07 01:11:56;;;;;;;7.07;6.00;;;22.00;76.00;;;;;;5053489;28;20457;-58
2023/09/07 01:14:23;;;;;;;7.20;6.03;;;22.00;76.00;;;;;;5053550;28;20453;-58
2023/09/07 01:16:50;;;;;;;7.03;6.23;;;21.90;76.10;;;;;;5053503;28;20943;-58
2023/09/07 01:19:18;;;;;;;7.33;6.60;;;21.80;76.10;;;;;;5054178;28;20811;-58
2023/09/07 01:21:47;;;;;;;8.70;6.80;;;21.80;76.30;;;;;;5053648;28;20478;-58
2023/09/07 01:24:16;;;;;;;8.00;7.20;;;21.70;76.30;;;;;;5054440;28;20445;-59
2023/09/07 01:26:43;;;;;;;7.37;6.70;;;21.70;76.60;;;;;;5053867;28;20446;-59
2023/09/07 01:29:10;;;;;;;7.63;6.90;;;21.70;76.80;;;;;;5053129;28;20524;-58
2023/09/07 01:31:37;;;;;;;7.00;6.40;;;21.70;77.00;;;;;;5053195;28;20806;-59
2023/09/07 01:34:05;;;;;;;8.30;6.30;;;21.60;77.00;;;;;;5052925;28;20838;-59
2023/09/07 01:36:32;;;;;;;7.87;7.17;;;21.60;77.20;;;;;;5053711;28;20457;-58
2023/09/07 01:39:01;;;;;;;7.60;6.90;;;21.60;77.40;;;;;;5053146;28;20467;-58
2023/09/07 01:41:28;;;;;;;7.13;6.53;;;21.50;77.50;;;;;;5053190;28;20449;-58
2023/09/07 01:43:55;;;;;;;8.03;7.30;;;21.50;77.60;;;;;;5053483;28;20540;-58
2023/09/07 01:46:22;;;;;;;7.90;7.20;;;21.40;77.50;;;;;;5053044;28;20454;-58
2023/09/07 01:48:48;;;;;;;8.07;7.30;;;21.40;77.80;;;;;;5052795;28;20995;-59
2023/09/07 01:51:15;;;;;;;8.47;7.20;;;21.30;77.90;;;;;;5053046;28;20472;-59
2023/09/07 01:53:42;;;;;;;8.03;6.73;;;21.30;78.00;;;;;;5053079;28;20453;-58
2023/09/07 01:56:10;;;;;;;7.73;6.93;;;21.20;78.20;;;;;;5053114;28;20441;-58
2023/09/07 01:58:37;;;;;;;7.80;7.20;;;21.20;78.50;;;;;;5052848;28;20438;-58
2023/09/07 02:01:03;;;;;;;9.30;7.30;;;21.20;78.40;;;;;;5052966;28;20437;-58
2023/09/07 02:03:30;;;;;;;8.30;7.50;;;21.10;78.60;;;;;;5052777;28;20462;-58
2023/09/07 02:05:57;;;;;;;8.13;7.30;;;21.10;78.70;;;;;;5052751;28;20445;-58
2023/09/07 02:08:24;;;;;;;7.60;6.90;;;21.10;78.60;;;;;;5052382;28;20473;-58
2023/09/07 02:10:50;;;;;;;7.97;7.17;;;21.10;78.70;;;;;;5056070;28;20480;-58
2023/09/07 02:13:18;;;;;;;7.17;6.47;;;21.00;78.80;;;;;;5056364;28;20465;-58
2023/09/07 02:15:45;;;;;;;8.10;6.37;;;21.00;78.90;;;;;;5056108;28;20446;-58
2023/09/07 02:18:12;;;;;;;7.73;7.03;;;21.00;79.10;;;;;;5056090;28;20441;-58
2023/09/07 02:20:39;;;;;;;8.53;7.83;;;21.00;80.00;;;;;;5056416;28;20459;-58
2023/09/07 02:23:05;;;;;;;8.20;7.40;;;20.90;79.20;;;;;;5056041;28;21044;-58
2023/09/07 02:25:32;;;;;;;8.33;7.43;;;20.90;79.40;;;;;;5056554;28;20433;-58
2023/09/07 02:27:59;;;;;;;8.30;7.33;;;20.80;79.40;;;;;;5056147;28;20488;-58
2023/09/07 02:30:27;;;;;;;7.67;6.53;;;20.80;79.60;;;;;;5056935;28;20454;-58
2023/09/07 02:32:54;;;;;;;9.17;7.70;;;20.80;79.80;;;;;;5056044;28;20473;-58
2023/09/07 02:35:20;;;;;;;7.00;6.40;;;20.70;79.80;;;;;;5056063;28;20474;-58
2023/09/07 02:37:47;;;;;;;8.63;7.83;;;20.70;80.00;;;;;;5055999;28;20474;-58
2023/09/07 02:40:15;;;;;;;8.10;7.13;;;20.70;80.30;;;;;;5055991;28;20817;-58
2023/09/07 02:42:42;;;;;;;11.47;7.30;;;20.60;80.40;;;;;;5055794;28;20565;-58
2023/09/07 02:45:11;;;;;;;8.23;7.43;;;20.60;80.50;;;;;;5055845;28;20441;-58
2023/09/07 02:47:39;;;;;;;7.70;7.00;;;20.50;80.50;;;;;;5055739;28;20442;-58
2023/09/07 02:50:07;;;;;;;8.00;7.20;;;20.50;80.80;;;;;;5055730;28;20453;-58
2023/09/07 02:52:33;;;;;;;9.03;7.27;;;20.40;81.10;;;;;;5055704;28;20466;-58
2023/09/07 02:55:00;;;;;;;7.50;6.80;;;20.40;81.20;;;;;;5055812;28;20445;-58
2023/09/07 02:57:27;;;;;;;8.33;7.30;;;20.30;81.30;;;;;;5055651;28;20445;-58
2023/09/07 02:59:54;;;;;;;7.53;6.57;;;20.40;81.60;;;;;;5055576;28;20438;-58
2023/09/07 03:02:20;;;;;;;9.37;8.47;;;20.30;81.50;;;;;;5055123;28;20998;-58
2023/09/07 03:04:48;;;;;;;7.73;7.13;;;20.30;81.60;;;;;;5055523;28;20445;-58
2023/09/07 03:07:15;;;;;;;9.00;7.07;;;20.30;81.60;;;;;;5055501;28;20450;-58
2023/09/07 03:09:42;;;;;;;8.70;7.87;;;20.30;82.60;;;;;;5055276;28;20485;-58
2023/09/07 03:12:09;;;;;;;7.90;7.20;;;20.30;81.70;;;;;;5055175;28;20885;-58
2023/09/07 03:14:35;;;;;;;10.63;7.97;;;20.30;81.60;;;;;;5055155;28;20955;-58
2023/09/07 03:17:03;;;;;;;8.27;6.97;;;20.30;81.70;;;;;;5055278;28;20445;-58
2023/09/07 03:19:30;;;;;;;8.10;7.40;;;20.30;81.70;;;;;;5055192;28;20804;-58
2023/09/07 03:21:58;;;;;;;6.97;6.27;;;20.20;81.50;;;;;;5054799;28;20476;-58
2023/09/07 03:24:26;;;;;;;8.20;7.40;;;20.20;81.50;;;;;;5054769;28;20943;-58
2023/09/07 03:26:53;;;;;;;7.70;7.00;;;20.20;81.50;;;;;;5055139;28;20445;-58
2023/09/07 03:29:20;;;;;;;7.63;6.90;;;20.20;81.40;;;;;;5054974;28;20488;-58
2023/09/07 03:31:46;;;;;;;10.80;8.37;;;20.20;81.60;;;;;;5054938;28;20468;-58
2023/09/07 03:34:13;;;;;;;7.50;6.80;;;20.10;81.70;;;;;;5054565;28;20449;-58
2023/09/07 03:36:40;;;;;;;7.50;6.80;;;20.10;81.90;;;;;;5055080;28;20453;-58
2023/09/07 03:39:09;;;;;;;9.60;6.70;;;20.10;82.10;;;;;;5054835;28;20460;-58
2023/09/07 03:41:36;;;;;;;7.80;7.00;;;20.00;82.20;;;;;;5054716;28;20535;-58
2023/09/07 03:44:03;;;;;;;8.37;7.57;;;20.00;82.40;;;;;;5054814;28;20437;-58
2023/09/07 03:46:30;;;;;;;7.70;6.83;;;20.00;82.40;;;;;;5054726;28;20795;-58
2023/09/07 03:48:56;;;;;;;7.07;6.47;;;19.90;82.30;;;;;;5054725;28;20482;-58
2023/09/07 03:51:23;;;;;;;7.00;6.30;;;19.90;82.30;;;;;;5054533;28;20441;-58
2023/09/07 03:53:50;;;;;;;7.33;6.57;;;19.90;82.60;;;;;;5054600;28;20453;-58
2023/09/07 03:56:18;;;;;;;7.03;6.43;;;19.90;82.70;;;;;;5054528;28;20446;-58
2023/09/07 03:58:47;;;;;;;7.60;6.90;;;19.80;82.50;;;;;;5054134;28;20954;-58
2023/09/07 04:01:13;;;;;;;7.90;7.20;;;19.80;82.70;;;;;;5054380;28;20457;-58
2023/09/07 04:03:41;;;;;;;7.53;6.83;;;19.80;82.90;;;;;;5054454;28;20491;-58
2023/09/07 04:06:08;;;;;;;6.70;6.10;;;19.70;82.90;;;;;;5054360;28;20495;-58
2023/09/07 04:08:35;;;;;;;6.60;6.00;;;19.70;83.20;;;;;;5053989;28;20477;-58
2023/09/07 04:11:05;;;;;;;7.57;6.97;;;19.70;83.30;;;;;;5053848;28;20460;-58
2023/09/07 04:13:33;;;;;;;7.60;6.90;;;19.70;83.20;;;;;;5054103;28;20458;-58
2023/09/07 04:16:00;;;;;;;8.03;7.30;;;19.70;83.40;;;;;;5053883;28;20932;-58
2023/09/07 04:18:26;;;;;;;7.13;6.63;;;19.70;83.30;;;;;;5054152;28;20441;-57
2023/09/07 04:20:53;;;;;;;8.13;6.53;;;19.60;83.20;;;;;;5054048;28;20473;-57
2023/09/07 04:23:20;;;;;;;7.80;6.93;;;19.60;83.20;;;;;;5053507;28;20473;-58
2023/09/07 04:25:46;;;;;;;9.63;6.30;;;19.60;83.30;;;;;;5053942;28;20460;-58
2023/09/07 04:28:13;;;;;;;6.60;5.97;;;19.60;83.20;;;;;;5053950;28;20450;-58
2023/09/07 04:30:42;;;;;;;7.63;6.83;;;19.60;83.20;;;;;;5053628;28;20446;-58
2023/09/07 04:33:09;;;;;;;6.57;5.97;;;19.50;84.00;;;;;;5053329;28;20458;-58
2023/09/07 04:35:36;;;;;;;8.13;6.73;;;19.50;83.20;;;;;;5053912;28;20449;-57
2023/09/07 04:38:03;;;;;;;10.97;6.40;;;19.50;83.30;;;;;;5053880;28;20674;-57
2023/09/07 04:40:30;;;;;;;6.70;6.03;;;19.50;83.50;;;;;;5053600;28;20968;-58
2023/09/07 04:42:57;;;;;;;6.50;5.90;;;19.40;83.50;;;;;;5054590;28;20461;-58
2023/09/07 04:45:23;;;;;;;6.70;6.00;;;19.40;83.60;;;;;;5053936;28;20445;-58
2023/09/07 04:47:52;;;;;;;6.00;5.50;;;19.40;83.70;;;;;;5053976;28;20457;-58
2023/09/07 04:50:18;;;;;;;6.23;5.67;;;19.40;83.80;;;;;;5053676;28;20488;-57
2023/09/07 04:52:45;;;;;;;10.63;6.70;;;19.40;84.10;;;;;;5053608;28;20473;-58
2023/09/07 04:55:12;;;;;;;11.80;6.90;;;19.30;84.00;;;;;;5053609;28;20448;-57
2023/09/07 04:57:38;;;;;;;7.00;5.93;;;19.30;84.20;;;;;;5053586;28;20453;-57
2023/09/07 05:00:07;;;;;;;8.93;7.27;;;19.30;84.20;;;;;;5053747;28;20445;-58
2023/09/07 05:02:38;;;;;;;7.93;6.60;;;19.40;84.60;;;;;;5053365;28;20479;-58
2023/09/07 05:05:07;;;;;;;7.07;6.10;;;19.40;84.70;;;;;;5053473;28;20513;-57
2023/09/07 05:07:34;;;;;;;7.50;6.30;;;19.40;85.10;;;;;;5053406;28;20446;-57
2023/09/07 05:10:03;;;;;;;8.47;6.80;;;19.40;85.20;;;;;;5052925;28;21003;-58
2023/09/07 05:12:29;;;;;;;6.90;5.80;;;19.40;85.40;;;;;;5053223;28;20899;-57
2023/09/07 05:14:56;;;;;;;6.80;6.10;;;19.40;85.30;;;;;;5053393;28;20481;-57
2023/09/07 05:17:23;;;;;;;8.00;6.63;;;19.40;85.20;;;;;;5053393;28;20453;-58
2023/09/07 05:19:49;;;;;;;6.37;5.13;;;19.40;85.10;;;;;;5053283;28;20442;-57
2023/09/07 05:22:17;;;;;;;7.50;5.90;;;19.40;85.10;;;;;;5053016;28;20485;-57
2023/09/07 05:24:46;;;;;;;6.80;6.20;;;19.40;85.10;;;;;;5053262;28;20480;-57
2023/09/07 05:27:13;;;;;;;8.63;6.40;;;19.40;85.10;;;;;;5053329;28;20449;-58
2023/09/07 05:29:40;;;;;;;6.60;5.60;;;19.40;85.20;;;;;;5053126;28;20481;-57
2023/09/07 05:32:09;;;;;;;6.63;5.90;;;19.40;85.40;;;;;;5053183;28;20485;-57
2023/09/07 05:34:35;;;;;;;6.10;5.30;;;19.40;85.50;;;;;;5053197;28;20445;-57
2023/09/07 05:37:02;;;;;;;6.57;5.97;;;19.40;85.60;;;;;;5053160;28;20449;-58
2023/09/07 05:39:30;;;;;;;6.27;5.70;;;19.40;85.60;;;;;;5053128;28;20442;-58
2023/09/07 05:41:56;;;;;;;9.50;6.43;;;19.40;86.00;;;;;;5053091;28;20462;-58
2023/09/07 05:44:23;;;;;;;6.47;5.87;;;19.40;86.10;;;;;;5054539;28;20450;-57
2023/09/07 05:46:50;;;;;;;6.20;5.70;;;19.40;86.40;;;;;;5056999;28;20450;-57
2023/09/07 05:49:16;;;;;;;6.67;5.97;;;19.40;86.60;;;;;;5056974;28;20481;-57
2023/09/07 05:51:43;;;;;;;7.73;6.70;;;19.40;86.80;;;;;;5056910;28;20473;-57
2023/09/07 05:54:10;;;;;;;7.60;6.80;;;19.40;86.90;;;;;;5057072;28;20456;-58
2023/09/07 05:56:39;;;;;;;6.90;6.20;;;19.50;87.30;;;;;;5056938;28;20442;-57
2023/09/07 05:59:06;;;;;;;7.30;6.70;;;19.60;87.60;;;;;;5056737;28;20452;-57
2023/09/07 06:01:32;;;;;;;8.77;5.50;;;19.60;87.80;;;;;;5056678;28;20467;-57
2023/09/07 06:03:59;;;;;;;10.13;5.47;;;19.60;87.80;;;;;;5056789;28;20821;-57
2023/09/07 06:06:26;;;;;;;8.50;5.90;;;19.70;88.10;;;;;;5056589;28;20445;-57
2023/09/07 06:08:53;;;;;;;7.10;6.40;;;19.70;88.20;;;;;;5056461;28;20449;-57
2023/09/07 06:11:20;;;;;;;6.73;6.03;;;19.70;88.50;;;;;;5056506;28;20449;-58
2023/09/07 06:13:49;;;;;;;6.17;5.57;;;19.70;88.30;;;;;;5056637;28;20441;-57
2023/09/07 06:16:15;;;;;;;5.80;5.27;;;19.80;88.50;;;;;;5056810;28;20532;-57
2023/09/07 06:18:42;;;;;;;8.20;5.20;;;19.90;88.60;;;;;;5056178;28;20943;-57
2023/09/07 06:21:09;;;;;;;6.07;5.57;;;19.90;88.60;;;;;;5056278;28;20476;-57
2023/09/07 06:23:36;;;;;;;6.27;5.67;;;20.00;88.70;;;;;;5056380;28;20464;-58
2023/09/07 06:26:02;;;;;;;5.80;5.30;;;20.10;88.90;;;;;;5056290;28;20466;-58
2023/09/07 06:28:29;;;;;;;7.27;6.00;;;20.20;89.00;;;;;;5056251;28;20516;-58
2023/09/07 06:30:57;;;;;;;6.10;5.00;;;20.30;88.70;;;;;;5056235;28;20487;-57
2023/09/07 06:33:24;;;;;;;5.53;5.10;;;20.40;88.60;;;;;;5056580;28;20461;-57
2023/09/07 06:35:50;;;;;;;5.53;5.00;;;20.40;88.10;;;;;;5056412;28;20456;-57
2023/09/07 06:38:17;;;;;;;5.87;5.27;;;20.60;88.10;;;;;;5056065;28;20936;-57
2023/09/07 06:40:48;;;;;;;5.47;4.87;;;20.70;87.40;;;;;;5056428;28;20818;-58
2023/09/07 06:43:15;;;;;;;6.80;5.70;;;20.70;87.20;;;;;;5055932;28;20461;-58
2023/09/07 06:45:42;;;;;;;6.30;5.27;;;20.80;86.60;;;;;;5055824;28;20567;-57
2023/09/07 06:48:10;;;;;;;6.93;5.00;;;20.90;86.10;;;;;;5055744;28;20441;-58
2023/09/07 06:50:36;;;;;;;5.50;5.00;;;21.00;85.20;;;;;;5055651;28;20477;-58
2023/09/07 06:53:03;;;;;;;5.40;4.50;;;21.20;84.90;;;;;;5055716;28;20468;-58
2023/09/07 06:55:30;;;;;;;6.10;4.90;;;21.30;84.30;;;;;;5055404;28;20442;-58
2023/09/07 06:57:57;;;;;;;6.73;5.30;;;21.30;83.50;;;;;;5055434;28;20954;-58
2023/09/07 07:00:23;;;;;;;5.80;4.80;;;21.40;83.30;;;;;;5055311;28;20810;-58
2023/09/07 07:02:50;;;;;;;5.70;4.90;;;21.50;82.20;;;;;;5055586;28;20476;-58
2023/09/07 07:05:18;;;;;;;5.60;4.30;;;21.60;80.30;;;;;;5055573;28;20445;-58
2023/09/07 07:07:45;;;;;;;5.07;4.10;;;21.70;79.90;;;;;;5056064;28;20445;-58
2023/09/07 07:10:11;;;;;;;4.80;4.40;;;21.80;79.40;;;;;;5055147;28;20991;-58
2023/09/07 07:12:38;;;;;;;6.40;4.90;;;21.90;78.70;;;;;;5055107;28;20865;-58
2023/09/07 07:15:07;;;;;;;5.10;4.70;;;22.00;77.50;;;;;;5055600;28;20449;-58
2023/09/07 07:17:33;;;;;;;4.40;4.10;;;22.20;76.90;;;;;;5054927;28;20445;-58
2023/09/07 07:20:00;;;;;;;10.70;4.83;;;22.30;76.60;;;;;;5054973;28;20449;-58
2023/09/07 07:22:28;;;;;;;4.47;4.07;;;22.40;76.30;;;;;;5055066;28;20484;-58
2023/09/07 07:24:55;;;;;;;5.80;4.90;;;22.50;75.10;;;;;;5054880;28;20959;-58
2023/09/07 07:27:22;;;;;;;6.20;4.47;;;22.70;75.00;;;;;;5055063;28;20445;-58
2023/09/07 07:29:48;;;;;;;4.30;3.90;;;22.80;74.10;;;;;;5054967;28;20478;-58
2023/09/07 07:32:15;;;;;;;5.90;5.40;;;22.90;73.40;;;;;;5054961;28;20458;-58
2023/09/07 07:34:43;;;;;;;4.50;4.13;;;23.10;72.50;;;;;;5055064;28;20449;-58
2023/09/07 07:37:09;;;;;;;4.23;3.87;;;23.20;71.40;;;;;;5055007;28;20446;-58
2023/09/07 07:39:37;;;;;;;6.63;4.40;;;23.30;71.30;;;;;;5054505;28;20445;-58
2023/09/07 07:42:05;;;;;;;6.30;4.23;;;23.50;71.50;;;;;;5054833;28;20472;-58
2023/09/07 07:44:32;;;;;;;4.70;4.30;;;23.60;70.70;;;;;;5054835;28;20454;-58
2023/09/07 07:46:59;;;;;;;4.80;4.40;;;23.80;70.20;;;;;;5054789;28;20441;-58
2023/09/07 07:49:27;;;;;;;5.00;4.07;;;23.90;69.60;;;;;;5054630;28;20449;-60
2023/09/07 07:51:55;;;;;;;4.67;4.23;;;24.20;69.50;;;;;;5054602;28;20501;-58
2023/09/07 07:54:22;;;;;;;4.60;4.20;;;24.30;68.70;;;;;;5054918;28;20445;-58
2023/09/07 07:56:50;;;;;;;6.70;4.57;;;24.50;68.50;;;;;;5055676;28;20446;-58
2023/09/07 07:59:17;;;;;;;5.77;4.80;;;24.70;66.90;;;;;;5055930;28;20449;-58
2023/09/07 08:01:44;;;;;;;5.73;5.07;;;24.90;66.40;;;;;;5054760;28;20975;-58
2023/09/07 08:04:11;;;;;;;6.90;4.90;;;25.00;65.60;;;;;;5055063;28;20468;-58
2023/09/07 08:06:37;;;;;;;6.00;4.10;;;25.20;65.40;;;;;;5054364;28;20449;-58
2023/09/07 08:09:05;;;;;;;9.57;4.53;;;25.40;64.50;;;;;;5054641;28;20445;-59
2023/09/07 08:11:32;;;;;;;6.23;5.37;;;25.50;63.50;;;;;;5054044;28;20999;-58
2023/09/07 08:14:00;;;;;;;4.87;4.07;;;25.70;62.30;;;;;;5054663;28;20441;-58
2023/09/07 08:16:26;;;;;;;5.17;4.67;;;25.90;61.40;;;;;;5054296;28;20442;-58
2023/09/07 08:18:53;;;;;;;4.90;4.47;;;26.00;60.20;;;;;;5054378;28;20448;-58
2023/09/07 08:21:19;;;;;;;5.63;4.67;;;26.10;59.00;;;;;;5053897;28;20454;-58
2023/09/07 08:23:46;;;;;;;6.00;5.07;;;26.20;59.00;;;;;;5054406;28;20430;-58
2023/09/07 08:26:14;;;;;;;7.10;4.53;;;26.30;58.40;;;;;;5054043;28;20452;-59
2023/09/07 08:28:41;;;;;;;5.87;4.80;;;26.40;58.80;;;;;;5054033;28;20453;-58
2023/09/07 08:31:10;;;;;;;7.73;4.90;;;26.50;58.20;;;;;;5053558;28;20995;-58
2023/09/07 08:33:40;;;;;;;5.07;4.60;;;26.70;57.80;;;;;;5053976;28;20836;-58
2023/09/07 08:36:08;;;;;;;6.60;5.20;;;26.90;57.60;;;;;;5053916;28;20449;-58
2023/09/07 08:38:35;;;;;;;5.93;5.33;;;27.00;56.10;;;;;;5053658;28;20943;-58
2023/09/07 08:41:04;;;;;;;6.33;5.10;;;26.90;55.00;;;;;;5053696;28;20951;-58
2023/09/07 08:43:35;;;;;;;4.87;4.13;;;26.80;55.60;;;;;;5053903;28;20497;-58
2023/09/07 08:46:11;;;;;;;5.43;4.60;;;26.80;56.10;;;;;;5053737;28;20491;-58
2023/09/07 08:48:40;;;;;;;11.33;5.13;;;27.00;55.50;;;;;;5053782;28;20433;-58
2023/09/07 08:51:08;;;;;;;4.13;3.83;;;27.10;55.70;;;;;;5053611;28;20576;-59
2023/09/07 08:53:35;;;;;;;7.50;4.40;;;27.30;55.70;;;;;;5053758;28;20461;-58
2023/09/07 08:56:03;;;;;;;5.13;4.63;;;27.60;55.00;;;;;;5053685;28;20503;-59
2023/09/07 08:58:31;;;;;;;8.13;4.30;;;27.80;54.50;;;;;;5053687;28;20446;-58
2023/09/07 09:00:58;;;;;;;4.30;3.90;;;28.10;53.70;;;;;;5053566;28;20441;-58
2023/09/07 09:03:25;;;;;;;4.73;4.33;;;28.40;52.90;;;;;;5053538;28;20468;-58
2023/09/07 09:05:55;;;;;;;4.20;3.83;;;28.60;52.40;;;;;;5053591;28;20507;-59
2023/09/07 09:08:24;;;;;;;4.87;4.37;;;28.80;51.50;;;;;;5053537;28;20448;-58
2023/09/07 09:11:00;;;;;;;4.83;4.43;;;29.10;51.40;;;;;;5053943;28;20808;-58
2023/09/07 09:13:28;;;;;;;4.10;3.80;;;29.30;50.60;;;;;;5053700;28;20469;-58
2023/09/07 09:15:55;;;;;;;6.50;4.30;;;29.50;48.90;;;;;;5053586;28;20481;-58
2023/09/07 09:18:22;;;;;;;4.80;4.20;;;29.60;49.20;;;;;;5053376;28;20444;-59
2023/09/07 09:20:49;;;;;;;4.30;4.00;;;29.80;49.70;;;;;;5053163;28;20935;-59
2023/09/07 09:23:17;;;;;;;5.27;4.50;;;30.10;48.80;;;;;;5053032;28;20477;-59
2023/09/07 09:25:44;;;;;;;4.17;3.87;;;30.20;47.80;;;;;;5053222;28;20969;-59
2023/09/07 09:28:11;;;;;;;7.83;4.20;;;30.50;47.80;;;;;;5053245;28;20441;-59
2023/09/07 09:30:38;;;;;;;5.97;4.00;;;30.70;47.20;;;;;;5053116;28;20588;-59
2023/09/07 09:33:07;;;;;;;4.87;4.30;;;30.80;46.10;;;;;;5053050;28;20472;-59
2023/09/07 09:35:35;;;;;;;4.87;4.40;;;31.00;46.20;;;;;;5053195;28;20455;-59
2023/09/07 09:38:04;;;;;;;4.93;4.50;;;31.20;44.20;;;;;;5053168;28;20455;-59
2023/09/07 09:40:32;;;;;;;6.30;3.90;;;31.20;43.90;;;;;;5053245;28;20437;-59
2023/09/07 09:43:00;;;;;;;5.03;4.53;;;31.10;43.10;;;;;;5053073;28;20479;-59
2023/09/07 09:45:28;;;;;;;4.53;4.20;;;31.20;43.70;;;;;;5053221;28;20444;-59
2023/09/07 09:47:56;;;;;;;5.53;4.93;;;31.30;45.20;;;;;;5053117;28;20512;-59
2023/09/07 09:50:23;;;;;;;4.50;4.17;;;31.50;42.70;;;;;;5052824;28;20571;-59
2023/09/07 09:52:52;;;;;;;4.83;4.20;;;31.60;42.20;;;;;;5052968;28;20471;-59
2023/09/07 09:55:20;;;;;;;4.57;3.97;;;31.80;41.50;;;;;;5052934;28;20452;-56
2023/09/07 09:57:47;;;;;;;4.87;4.37;;;32.00;41.60;;;;;;5053710;28;20475;-56
2023/09/07 10:00:25;;;;;;;4.43;4.03;;;32.20;41.40;;;;;;5052961;28;20821;-56
2023/09/07 10:03:00;;;;;;;10.40;4.43;;;32.50;41.10;;;;;;5052858;28;20461;-56
2023/09/07 10:05:27;;;;;;;6.73;4.60;;;32.80;40.80;;;;;;5052896;28;20515;-56
2023/09/07 10:08:00;;;;;;;5.77;4.30;;;33.20;41.50;;;;;;5053724;28;20468;-56
2023/09/07 10:10:28;;;;;;;5.20;4.80;;;33.60;41.20;;;;;;5052528;28;20993;-56
2023/09/07 10:12:56;;;;;;;5.77;5.23;;;34.00;40.80;;;;;;5052985;28;20464;-56
2023/09/07 10:15:23;;;;;;;4.80;4.37;;;34.40;38.90;;;;;;5052738;28;20433;-56
2023/09/07 10:17:52;;;;;;;5.37;4.90;;;34.80;38.90;;;;;;5052803;28;20444;-56
2023/09/07 10:20:22;;;;;;;6.33;5.47;;;35.20;38.90;;;;;;5052674;28;20537;-56
2023/09/07 10:22:49;;;;;;;10.50;4.70;;;35.60;38.10;;;;;;5052368;28;20828;-57
2023/09/07 10:25:20;;;;;;;4.80;4.40;;;36.00;36.20;;;;;;5052402;28;20213;-57
2023/09/07 10:27:47;;;;;;;7.07;4.43;;;36.40;35.50;;;;;;5052607;28;20206;-57
2023/09/07 10:30:19;;;;;;;7.00;4.90;;;36.80;34.70;;;;;;5053411;28;20244;-57
2023/09/07 10:32:46;;;;;;;5.03;4.53;;;37.30;34.40;;;;;;5055954;28;20221;-57
2023/09/07 10:35:18;;;;;;;4.70;4.38;;;37.80;33.30;;;;;;5056158;28;20577;-57
2023/09/07 10:37:46;;;;;;;7.90;4.78;;;38.30;31.80;;;;;;5056387;28;20186;-57
2023/09/07 10:40:15;;;;;;;4.63;4.22;;;38.80;30.50;;;;;;5056141;28;20207;-57
2023/09/07 10:42:42;;;;;;;4.68;4.07;;;39.40;30.30;;;;;;5055955;28;20218;-57
2023/09/07 10:45:12;;;;;;;4.32;4.03;;;39.90;29.70;;;;;;5055956;28;20202;-57
2023/09/07 10:47:43;;;;;;;4.80;4.40;;;40.40;28.40;;;;;;5055868;28;20206;-57
2023/09/07 10:50:12;;;;;;;6.50;4.30;;;41.00;28.00;;;;;;5055904;28;20225;-57
2023/09/07 10:52:40;;;;;;;7.55;4.28;;;41.50;26.30;;;;;;5055534;28;20821;-57
2023/09/07 10:55:10;;;;;;;4.88;4.35;;;42.00;26.70;;;;;;5055742;28;20199;-57
2023/09/07 10:57:43;;;;;;;9.75;3.95;;;42.50;26.00;;;;;;5055708;28;20206;-57
2023/09/07 11:00:11;;;;;;;4.10;3.80;;;43.00;25.40;;;;;;5055768;28;20206;-58
2023/09/07 11:02:38;;;;;;;3.95;3.63;;;43.30;25.00;;;;;;5055479;28;20226;-57
2023/09/07 11:05:07;;;;;;;7.22;4.20;;;43.70;24.50;;;;;;5055520;28;20206;-57
2023/09/07 11:07:34;;;;;;;6.95;3.60;;;44.10;24.00;;;;;;5055463;28;20198;-57
2023/09/07 11:10:04;;;;;;;4.95;3.72;;;44.40;23.90;;;;;;5055676;28;20198;-58
2023/09/07 11:12:30;;;;;;;4.00;3.55;;;44.70;24.00;;;;;;5055489;28;20230;-58
2023/09/07 11:14:57;;;;;;;3.92;3.40;;;45.20;23.30;;;;;;5056628;28;20209;-57
2023/09/07 11:17:28;;;;;;;5.07;3.85;;;45.50;22.70;;;;;;5056740;28;20206;-57
2023/09/07 11:19:55;;;;;;;4.28;3.70;;;45.80;23.20;;;;;;5056044;28;20261;-58
2023/09/07 11:22:23;;;;;;;3.92;3.63;;;46.10;22.00;;;;;;5055284;28;20715;-58
2023/09/07 11:24:50;;;;;;;10.48;4.22;;;46.40;21.30;;;;;;5055309;28;20206;-58
2023/09/07 11:27:18;;;;;;;4.20;3.50;;;46.70;21.60;;;;;;5055596;28;20589;-58
2023/09/07 11:29:52;;;;;;;5.70;3.63;;;46.90;21.10;;;;;;5055503;28;20225;-58
2023/09/07 11:32:21;;;;;;;5.45;3.10;;;47.20;20.90;;;;;;5055329;28;20231;-57
2023/09/07 11:34:50;;;;;;;3.38;3.08;;;47.30;21.00;;;;;;5055304;28;20253;-58
2023/09/07 11:37:17;;;;;;;4.35;3.25;;;47.70;21.00;;;;;;5055330;28;20234;-58
2023/09/07 11:39:45;;;;;;;3.60;3.15;;;47.90;20.00;;;;;;5055117;28;20208;-58
2023/09/07 11:42:12;;;;;;;3.78;3.42;;;48.20;19.90;;;;;;5053952;28;20223;-58
2023/09/07 11:44:38;;;;;;;3.65;3.30;;;48.40;19.40;;;;;;5055166;28;20207;-58
2023/09/07 11:47:05;;;;;;;3.70;2.88;;;48.60;19.60;;;;;;5054615;28;20622;-58
2023/09/07 11:49:32;;;;;;;4.43;3.05;;;48.90;19.30;;;;;;5054737;28;20202;-58
2023/09/07 11:51:59;;;;;;;5.80;2.92;;;49.20;18.90;;;;;;5054632;28;20234;-58
2023/09/07 11:54:26;;;;;;;2.70;2.50;;;49.50;18.90;;;;;;5054902;28;20248;-58
2023/09/07 11:56:54;;;;;;;3.30;2.95;;;49.80;18.60;;;;;;5054712;28;20704;-58
2023/09/07 11:59:21;;;;;;;4.30;3.15;;;50.00;18.20;;;;;;5054672;28;20205;-59
2023/09/07 12:01:48;;;;;;;4.00;3.70;;;50.30;18.00;;;;;;5054536;28;20222;-58
2023/09/07 12:04:15;;;;;;;5.20;3.20;;;50.40;17.60;;;;;;5054245;28;20752;-59
2023/09/07 12:06:41;;;;;;;3.10;2.80;;;50.60;17.50;;;;;;5054546;28;20214;-58
2023/09/07 12:09:09;;;;;;;3.17;2.97;;;50.80;17.50;;;;;;5054500;28;20206;-58
2023/09/07 12:11:36;;;;;;;3.42;3.13;;;50.90;17.60;;;;;;5054469;28;20316;-59
2023/09/07 12:14:05;;;;;;;4.05;3.10;;;51.20;17.10;;;;;;5054667;28;20206;-58
2023/09/07 12:16:32;;;;;;;3.83;3.30;;;51.40;16.80;;;;;;5054292;28;20669;-59
2023/09/07 12:18:58;;;;;;;4.40;3.17;;;51.50;16.10;;;;;;5054615;28;20203;-59
2023/09/07 12:21:25;;;;;;;3.35;3.05;;;51.70;15.80;;;;;;5053950;28;20206;-59
2023/09/07 12:23:52;;;;;;;4.30;2.92;;;51.90;15.90;;;;;;5054304;28;20244;-59
2023/09/07 12:26:20;;;;;;;5.28;2.80;;;51.90;15.70;;;;;;5053794;28;20630;-59
2023/09/07 12:28:47;;;;;;;4.50;3.22;;;52.20;15.70;;;;;;5054006;28;20301;-59
2023/09/07 12:31:16;;;;;;;4.45;3.10;;;52.30;15.20;;;;;;5054230;28;20222;-59
2023/09/07 12:33:43;;;;;;;3.28;2.97;;;52.30;14.80;;;;;;5053743;28;20567;-58
2023/09/07 12:36:13;;;;;;;3.97;3.58;;;52.20;15.20;;;;;;5053626;28;20577;-59
2023/09/07 12:38:39;;;;;;;3.58;2.85;;;52.30;15.90;;;;;;5053597;28;20208;-59
2023/09/07 12:41:06;;;;;;;3.55;3.10;;;52.40;15.80;;;;;;5053581;28;20676;-59
2023/09/07 12:43:33;;;;;;;3.40;3.10;;;52.60;14.90;;;;;;5053762;28;20246;-59
2023/09/07 12:46:00;;;;;;;3.67;3.38;;;52.90;15.00;;;;;;5053800;28;20294;-59